sensor_id;sensor_type;location;lat;lon;timestamp;P1;durP1;ratioP1;P2;durP2;ratioP2
28960;SDS011;16068;42.896;20.868;2023-02-03T00:00:46;3.47;;;2.00;;
28960;SDS011;16068;42.896;20.868;2023-02-03T00:03:33;3.53;;;1.90;;
28960;SDS011;16068;42.896;20.868;2023-02-03T00:06:19;4.97;;;2.25;;
28960;SDS011;16068;42.896;20.868;2023-02-03T00:09:05;3.13;;;1.92;;
28960;SDS011;16068;42.896;20.868;2023-02-03T00:11:50;2.50;;;1.67;;
28960;SDS011;16068;42.896;20.868;2023-02-03T00:14:37;2.88;;;1.80;;
28960;SDS011;16068;42.896;20.868;2023-02-03T00:17:23;4.55;;;2.03;;
28960;SDS011;16068;42.896;20.868;2023-02-03T00:20:09;3.60;;;1.45;;
28960;SDS011;16068;42.896;20.868;2023-02-03T00:23:06;2.03;;;1.23;;
28960;SDS011;16068;42.896;20.868;2023-02-03T00:25:53;1.30;;;0.80;;
28960;SDS011;16068;42.896;20.868;2023-02-03T00:28:39;1.50;;;1.00;;
28960;SDS011;16068;42.896;20.868;2023-02-03T00:31:26;1.30;;;1.10;;
28960;SDS011;16068;42.896;20.868;2023-02-03T00:34:12;2.10;;;1.20;;
28960;SDS011;16068;42.896;20.868;2023-02-03T00:36:58;1.08;;;0.90;;
28960;SDS011;16068;42.896;20.868;2023-02-03T00:39:43;1.92;;;1.02;;
28960;SDS011;16068;42.896;20.868;2023-02-03T00:42:33;1.63;;;1.20;;
28960;SDS011;16068;42.896;20.868;2023-02-03T00:45:20;2.20;;;1.10;;
28960;SDS011;16068;42.896;20.868;2023-02-03T00:48:13;2.15;;;1.10;;
28960;SDS011;16068;42.896;20.868;2023-02-03T00:51:01;2.55;;;1.20;;
28960;SDS011;16068;42.896;20.868;2023-02-03T00:53:47;1.17;;;0.65;;
28960;SDS011;16068;42.896;20.868;2023-02-03T00:56:33;1.52;;;0.70;;
28960;SDS011;16068;42.896;20.868;2023-02-03T00:59:20;0.88;;;0.60;;
28960;SDS011;16068;42.896;20.868;2023-02-03T01:02:06;1.30;;;0.50;;
28960;SDS011;16068;42.896;20.868;2023-02-03T01:04:51;0.63;;;0.57;;
28960;SDS011;16068;42.896;20.868;2023-02-03T01:07:37;1.33;;;0.63;;
28960;SDS011;16068;42.896;20.868;2023-02-03T01:10:23;0.40;;;0.40;;
28960;SDS011;16068;42.896;20.868;2023-02-03T01:13:09;3.33;;;0.60;;
28960;SDS011;16068;42.896;20.868;2023-02-03T01:15:56;1.25;;;0.70;;
28960;SDS011;16068;42.896;20.868;2023-02-03T01:18:43;1.48;;;0.68;;
28960;SDS011;16068;42.896;20.868;2023-02-03T01:21:31;1.17;;;0.60;;
28960;SDS011;16068;42.896;20.868;2023-02-03T01:24:17;1.38;;;0.75;;
28960;SDS011;16068;42.896;20.868;2023-02-03T01:27:03;2.13;;;0.85;;
28960;SDS011;16068;42.896;20.868;2023-02-03T01:29:50;1.67;;;1.00;;
28960;SDS011;16068;42.896;20.868;2023-02-03T01:32:39;1.55;;;0.80;;
28960;SDS011;16068;42.896;20.868;2023-02-03T01:35:24;2.10;;;0.70;;
28960;SDS011;16068;42.896;20.868;2023-02-03T01:38:12;4.97;;;0.82;;
28960;SDS011;16068;42.896;20.868;2023-02-03T01:40:58;1.45;;;0.93;;
28960;SDS011;16068;42.896;20.868;2023-02-03T01:43:46;0.60;;;0.50;;
28960;SDS011;16068;42.896;20.868;2023-02-03T01:46:38;3.20;;;1.08;;
28960;SDS011;16068;42.896;20.868;2023-02-03T01:49:32;1.83;;;0.88;;
28960;SDS011;16068;42.896;20.868;2023-02-03T01:52:20;3.30;;;0.70;;
28960;SDS011;16068;42.896;20.868;2023-02-03T01:55:09;1.15;;;0.70;;
28960;SDS011;16068;42.896;20.868;2023-02-03T01:58:05;1.02;;;0.60;;
28960;SDS011;16068;42.896;20.868;2023-02-03T02:01:16;1.38;;;0.60;;
28960;SDS011;16068;42.896;20.868;2023-02-03T02:04:06;1.17;;;0.60;;
28960;SDS011;16068;42.896;20.868;2023-02-03T02:06:54;2.35;;;0.90;;
28960;SDS011;16068;42.896;20.868;2023-02-03T02:09:41;1.73;;;0.80;;
28960;SDS011;16068;42.896;20.868;2023-02-03T02:12:28;1.98;;;0.95;;
28960;SDS011;16068;42.896;20.868;2023-02-03T02:15:15;1.38;;;0.90;;
28960;SDS011;16068;42.896;20.868;2023-02-03T02:33:43;2.60;;;0.57;;
28960;SDS011;16068;42.896;20.868;2023-02-03T02:39:05;4.85;;;1.05;;
28960;SDS011;16068;42.896;20.868;2023-02-03T02:41:59;5.75;;;1.60;;
28960;SDS011;16068;42.896;20.868;2023-02-03T02:44:50;3.42;;;0.88;;
28960;SDS011;16068;42.896;20.868;2023-02-03T02:47:40;0.95;;;0.60;;
28960;SDS011;16068;42.896;20.868;2023-02-03T02:50:27;3.85;;;0.80;;
28960;SDS011;16068;42.896;20.868;2023-02-03T02:53:19;2.60;;;0.90;;
28960;SDS011;16068;42.896;20.868;2023-02-03T02:56:07;3.58;;;0.82;;
28960;SDS011;16068;42.896;20.868;2023-02-03T02:58:56;1.42;;;0.82;;
28960;SDS011;16068;42.896;20.868;2023-02-03T03:01:43;1.08;;;0.70;;
28960;SDS011;16068;42.896;20.868;2023-02-03T03:04:29;0.93;;;0.70;;
28960;SDS011;16068;42.896;20.868;2023-02-03T03:07:21;2.42;;;0.80;;
28960;SDS011;16068;42.896;20.868;2023-02-03T03:10:11;1.85;;;0.82;;
28960;SDS011;16068;42.896;20.868;2023-02-03T03:13:00;1.95;;;0.90;;
28960;SDS011;16068;42.896;20.868;2023-02-03T03:15:49;3.63;;;1.00;;
28960;SDS011;16068;42.896;20.868;2023-02-03T03:18:38;4.53;;;0.80;;
28960;SDS011;16068;42.896;20.868;2023-02-03T03:21:44;4.40;;;1.00;;
28960;SDS011;16068;42.896;20.868;2023-02-03T03:24:36;2.25;;;0.90;;
28960;SDS011;16068;42.896;20.868;2023-02-03T03:27:28;3.53;;;1.10;;
28960;SDS011;16068;42.896;20.868;2023-02-03T03:30:21;1.80;;;0.75;;
28960;SDS011;16068;42.896;20.868;2023-02-03T03:33:09;2.08;;;1.00;;
28960;SDS011;16068;42.896;20.868;2023-02-03T03:36:39;3.42;;;0.90;;
28960;SDS011;16068;42.896;20.868;2023-02-03T03:39:16;1.95;;;0.90;;
28960;SDS011;16068;42.896;20.868;2023-02-03T03:42:09;2.10;;;0.90;;
28960;SDS011;16068;42.896;20.868;2023-02-03T03:50:53;3.22;;;0.80;;
28960;SDS011;16068;42.896;20.868;2023-02-03T03:53:43;5.38;;;1.33;;
28960;SDS011;16068;42.896;20.868;2023-02-03T03:56:35;2.70;;;1.00;;
28960;SDS011;16068;42.896;20.868;2023-02-03T03:59:25;7.00;;;1.20;;
28960;SDS011;16068;42.896;20.868;2023-02-03T04:02:15;2.63;;;1.05;;
28960;SDS011;16068;42.896;20.868;2023-02-03T04:05:02;2.45;;;1.00;;
28960;SDS011;16068;42.896;20.868;2023-02-03T04:07:48;1.77;;;0.93;;
28960;SDS011;16068;42.896;20.868;2023-02-03T04:10:34;3.30;;;1.02;;
28960;SDS011;16068;42.896;20.868;2023-02-03T04:13:25;3.92;;;1.10;;
28960;SDS011;16068;42.896;20.868;2023-02-03T04:16:10;5.35;;;1.23;;
28960;SDS011;16068;42.896;20.868;2023-02-03T04:18:56;3.80;;;1.00;;
28960;SDS011;16068;42.896;20.868;2023-02-03T04:21:42;1.77;;;0.88;;
28960;SDS011;16068;42.896;20.868;2023-02-03T04:24:28;6.18;;;1.20;;
28960;SDS011;16068;42.896;20.868;2023-02-03T04:27:14;4.55;;;1.38;;
28960;SDS011;16068;42.896;20.868;2023-02-03T04:30:00;2.92;;;1.13;;
28960;SDS011;16068;42.896;20.868;2023-02-03T04:32:46;2.05;;;1.17;;
28960;SDS011;16068;42.896;20.868;2023-02-03T04:35:33;2.70;;;1.08;;
28960;SDS011;16068;42.896;20.868;2023-02-03T04:38:19;3.65;;;1.10;;
28960;SDS011;16068;42.896;20.868;2023-02-03T04:41:04;2.58;;;1.05;;
28960;SDS011;16068;42.896;20.868;2023-02-03T04:43:50;5.68;;;1.30;;
28960;SDS011;16068;42.896;20.868;2023-02-03T04:46:36;2.88;;;1.30;;
28960;SDS011;16068;42.896;20.868;2023-02-03T04:49:22;7.35;;;1.30;;
28960;SDS011;16068;42.896;20.868;2023-02-03T04:52:08;2.85;;;1.17;;
28960;SDS011;16068;42.896;20.868;2023-02-03T04:54:54;3.53;;;1.40;;
28960;SDS011;16068;42.896;20.868;2023-02-03T04:57:40;4.82;;;1.48;;
28960;SDS011;16068;42.896;20.868;2023-02-03T05:00:26;3.17;;;1.48;;
28960;SDS011;16068;42.896;20.868;2023-02-03T05:03:13;3.47;;;1.10;;
28960;SDS011;16068;42.896;20.868;2023-02-03T05:05:59;2.75;;;1.17;;
28960;SDS011;16068;42.896;20.868;2023-02-03T05:08:44;2.30;;;1.40;;
28960;SDS011;16068;42.896;20.868;2023-02-03T05:11:30;5.43;;;1.67;;
28960;SDS011;16068;42.896;20.868;2023-02-03T05:14:16;5.45;;;1.45;;
28960;SDS011;16068;42.896;20.868;2023-02-03T05:17:02;2.70;;;1.50;;
28960;SDS011;16068;42.896;20.868;2023-02-03T05:19:47;4.00;;;1.67;;
28960;SDS011;16068;42.896;20.868;2023-02-03T05:22:33;2.22;;;1.48;;
28960;SDS011;16068;42.896;20.868;2023-02-03T05:25:20;4.40;;;1.50;;
28960;SDS011;16068;42.896;20.868;2023-02-03T05:28:05;4.43;;;1.80;;
28960;SDS011;16068;42.896;20.868;2023-02-03T05:30:51;6.70;;;1.77;;
28960;SDS011;16068;42.896;20.868;2023-02-03T05:33:37;3.00;;;1.67;;
28960;SDS011;16068;42.896;20.868;2023-02-03T05:36:23;6.70;;;1.73;;
28960;SDS011;16068;42.896;20.868;2023-02-03T05:39:10;5.82;;;2.05;;
28960;SDS011;16068;42.896;20.868;2023-02-03T05:41:55;4.70;;;2.03;;
28960;SDS011;16068;42.896;20.868;2023-02-03T05:44:43;16.67;;;2.78;;
28960;SDS011;16068;42.896;20.868;2023-02-03T05:47:28;5.15;;;1.80;;
28960;SDS011;16068;42.896;20.868;2023-02-03T05:50:14;4.82;;;2.25;;
28960;SDS011;16068;42.896;20.868;2023-02-03T05:53:01;13.25;;;2.88;;
28960;SDS011;16068;42.896;20.868;2023-02-03T05:55:48;9.18;;;2.53;;
28960;SDS011;16068;42.896;20.868;2023-02-03T05:58:34;8.30;;;2.85;;
28960;SDS011;16068;42.896;20.868;2023-02-03T06:01:20;11.68;;;3.95;;
28960;SDS011;16068;42.896;20.868;2023-02-03T06:04:06;15.82;;;3.70;;
28960;SDS011;16068;42.896;20.868;2023-02-03T06:06:52;9.13;;;3.58;;
28960;SDS011;16068;42.896;20.868;2023-02-03T06:09:37;12.20;;;4.80;;
28960;SDS011;16068;42.896;20.868;2023-02-03T06:12:24;10.38;;;4.50;;
28960;SDS011;16068;42.896;20.868;2023-02-03T06:15:13;11.80;;;3.95;;
28960;SDS011;16068;42.896;20.868;2023-02-03T06:18:00;10.13;;;4.50;;
28960;SDS011;16068;42.896;20.868;2023-02-03T06:20:45;7.28;;;3.42;;
28960;SDS011;16068;42.896;20.868;2023-02-03T06:23:31;6.35;;;4.05;;
28960;SDS011;16068;42.896;20.868;2023-02-03T06:26:17;11.73;;;4.88;;
28960;SDS011;16068;42.896;20.868;2023-02-03T06:29:03;9.65;;;5.00;;
28960;SDS011;16068;42.896;20.868;2023-02-03T06:31:48;7.03;;;3.75;;
28960;SDS011;16068;42.896;20.868;2023-02-03T06:34:35;7.22;;;3.78;;
28960;SDS011;16068;42.896;20.868;2023-02-03T06:37:20;14.13;;;5.10;;
28960;SDS011;16068;42.896;20.868;2023-02-03T06:40:10;12.90;;;4.80;;
28960;SDS011;16068;42.896;20.868;2023-02-03T06:42:56;8.20;;;3.70;;
28960;SDS011;16068;42.896;20.868;2023-02-03T06:45:45;6.53;;;3.15;;
28960;SDS011;16068;42.896;20.868;2023-02-03T06:48:34;8.15;;;3.83;;
28960;SDS011;16068;42.896;20.868;2023-02-03T06:51:19;9.10;;;3.97;;
28960;SDS011;16068;42.896;20.868;2023-02-03T06:54:05;12.32;;;3.67;;
28960;SDS011;16068;42.896;20.868;2023-02-03T06:56:52;6.07;;;3.00;;
28960;SDS011;16068;42.896;20.868;2023-02-03T06:59:37;7.30;;;3.38;;
28960;SDS011;16068;42.896;20.868;2023-02-03T07:02:23;13.02;;;4.82;;
28960;SDS011;16068;42.896;20.868;2023-02-03T07:05:09;15.45;;;6.35;;
28960;SDS011;16068;42.896;20.868;2023-02-03T07:07:55;21.40;;;10.20;;
28960;SDS011;16068;42.896;20.868;2023-02-03T07:10:41;28.83;;;12.60;;
28960;SDS011;16068;42.896;20.868;2023-02-03T07:13:27;19.63;;;9.00;;
28960;SDS011;16068;42.896;20.868;2023-02-03T07:16:13;7.05;;;4.07;;
28960;SDS011;16068;42.896;20.868;2023-02-03T07:18:59;10.50;;;4.55;;
28960;SDS011;16068;42.896;20.868;2023-02-03T07:21:45;9.05;;;4.63;;
28960;SDS011;16068;42.896;20.868;2023-02-03T07:24:31;8.80;;;4.25;;
28960;SDS011;16068;42.896;20.868;2023-02-03T07:27:17;7.53;;;3.70;;
28960;SDS011;16068;42.896;20.868;2023-02-03T07:30:04;8.73;;;3.85;;
28960;SDS011;16068;42.896;20.868;2023-02-03T07:32:51;8.80;;;4.22;;
28960;SDS011;16068;42.896;20.868;2023-02-03T07:35:38;13.25;;;5.22;;
28960;SDS011;16068;42.896;20.868;2023-02-03T07:38:24;12.68;;;5.82;;
28960;SDS011;16068;42.896;20.868;2023-02-03T07:41:11;9.02;;;5.40;;
28960;SDS011;16068;42.896;20.868;2023-02-03T07:43:56;11.80;;;5.28;;
28960;SDS011;16068;42.896;20.868;2023-02-03T07:46:42;14.40;;;7.03;;
28960;SDS011;16068;42.896;20.868;2023-02-03T07:49:30;14.60;;;7.32;;
28960;SDS011;16068;42.896;20.868;2023-02-03T07:52:15;11.80;;;6.53;;
28960;SDS011;16068;42.896;20.868;2023-02-03T07:55:02;15.10;;;7.47;;
28960;SDS011;16068;42.896;20.868;2023-02-03T07:57:48;22.20;;;7.45;;
28960;SDS011;16068;42.896;20.868;2023-02-03T08:00:33;14.90;;;6.72;;
28960;SDS011;16068;42.896;20.868;2023-02-03T08:03:19;10.27;;;5.90;;
28960;SDS011;16068;42.896;20.868;2023-02-03T08:06:06;11.05;;;6.00;;
28960;SDS011;16068;42.896;20.868;2023-02-03T08:08:52;15.45;;;8.25;;
28960;SDS011;16068;42.896;20.868;2023-02-03T08:11:39;17.20;;;6.47;;
28960;SDS011;16068;42.896;20.868;2023-02-03T08:14:25;6.50;;;3.45;;
28960;SDS011;16068;42.896;20.868;2023-02-03T08:17:10;9.57;;;4.75;;
28960;SDS011;16068;42.896;20.868;2023-02-03T08:19:56;8.50;;;4.60;;
28960;SDS011;16068;42.896;20.868;2023-02-03T08:22:43;8.85;;;3.63;;
28960;SDS011;16068;42.896;20.868;2023-02-03T08:25:29;21.45;;;9.75;;
28960;SDS011;16068;42.896;20.868;2023-02-03T08:28:15;27.38;;;10.57;;
28960;SDS011;16068;42.896;20.868;2023-02-03T08:31:01;20.35;;;8.93;;
28960;SDS011;16068;42.896;20.868;2023-02-03T08:33:54;15.02;;;6.95;;
28960;SDS011;16068;42.896;20.868;2023-02-03T08:36:40;12.00;;;6.75;;
28960;SDS011;16068;42.896;20.868;2023-02-03T08:39:28;9.45;;;4.10;;
28960;SDS011;16068;42.896;20.868;2023-02-03T08:42:14;10.63;;;4.75;;
28960;SDS011;16068;42.896;20.868;2023-02-03T08:44:59;7.97;;;3.72;;
28960;SDS011;16068;42.896;20.868;2023-02-03T08:47:50;8.68;;;4.10;;
28960;SDS011;16068;42.896;20.868;2023-02-03T08:50:35;10.27;;;3.42;;
28960;SDS011;16068;42.896;20.868;2023-02-03T08:53:25;7.30;;;3.30;;
28960;SDS011;16068;42.896;20.868;2023-02-03T08:56:20;5.45;;;3.25;;
28960;SDS011;16068;42.896;20.868;2023-02-03T08:59:06;16.60;;;3.45;;
28960;SDS011;16068;42.896;20.868;2023-02-03T09:01:52;3.72;;;2.47;;
28960;SDS011;16068;42.896;20.868;2023-02-03T09:04:38;3.47;;;2.28;;
28960;SDS011;16068;42.896;20.868;2023-02-03T09:07:24;5.88;;;1.90;;
28960;SDS011;16068;42.896;20.868;2023-02-03T09:10:10;5.90;;;2.00;;
28960;SDS011;16068;42.896;20.868;2023-02-03T09:12:56;5.90;;;2.20;;
28960;SDS011;16068;42.896;20.868;2023-02-03T09:15:41;7.03;;;3.00;;
28960;SDS011;16068;42.896;20.868;2023-02-03T09:18:27;4.93;;;2.58;;
28960;SDS011;16068;42.896;20.868;2023-02-03T09:21:13;6.35;;;3.10;;
28960;SDS011;16068;42.896;20.868;2023-02-03T09:24:17;3.85;;;1.70;;
28960;SDS011;16068;42.896;20.868;2023-02-03T09:27:03;5.28;;;2.10;;
28960;SDS011;16068;42.896;20.868;2023-02-03T09:29:49;4.80;;;2.00;;
28960;SDS011;16068;42.896;20.868;2023-02-03T09:32:35;4.70;;;2.00;;
28960;SDS011;16068;42.896;20.868;2023-02-03T09:35:21;7.05;;;3.10;;
28960;SDS011;16068;42.896;20.868;2023-02-03T09:38:07;6.90;;;2.35;;
28960;SDS011;16068;42.896;20.868;2023-02-03T09:44:29;4.03;;;2.20;;
28960;SDS011;16068;42.896;20.868;2023-02-03T09:47:34;4.75;;;2.17;;
28960;SDS011;16068;42.896;20.868;2023-02-03T09:50:24;4.90;;;2.03;;
28960;SDS011;16068;42.896;20.868;2023-02-03T09:56:03;4.93;;;2.38;;
28960;SDS011;16068;42.896;20.868;2023-02-03T09:58:49;4.05;;;1.52;;
28960;SDS011;16068;42.896;20.868;2023-02-03T10:01:43;3.95;;;1.63;;
28960;SDS011;16068;42.896;20.868;2023-02-03T10:20:10;2.63;;;1.52;;
28960;SDS011;16068;42.896;20.868;2023-02-03T10:23:22;3.08;;;1.25;;
28960;SDS011;16068;42.896;20.868;2023-02-03T10:26:18;3.50;;;1.63;;
28960;SDS011;16068;42.896;20.868;2023-02-03T10:29:17;3.13;;;1.40;;
28960;SDS011;16068;42.896;20.868;2023-02-03T10:32:19;4.18;;;1.70;;
28960;SDS011;16068;42.896;20.868;2023-02-03T10:35:10;6.88;;;2.15;;
28960;SDS011;16068;42.896;20.868;2023-02-03T10:37:57;6.22;;;2.60;;
28960;SDS011;16068;42.896;20.868;2023-02-03T10:40:43;4.78;;;2.60;;
28960;SDS011;16068;42.896;20.868;2023-02-03T10:43:30;5.28;;;2.15;;
28960;SDS011;16068;42.896;20.868;2023-02-03T10:46:33;6.23;;;2.17;;
28960;SDS011;16068;42.896;20.868;2023-02-03T10:49:21;6.13;;;2.33;;
28960;SDS011;16068;42.896;20.868;2023-02-03T10:52:06;4.47;;;2.25;;
28960;SDS011;16068;42.896;20.868;2023-02-03T10:54:52;5.22;;;1.92;;
28960;SDS011;16068;42.896;20.868;2023-02-03T10:57:43;6.72;;;2.92;;
28960;SDS011;16068;42.896;20.868;2023-02-03T11:00:29;6.25;;;2.58;;
28960;SDS011;16068;42.896;20.868;2023-02-03T11:03:27;2.28;;;1.58;;
28960;SDS011;16068;42.896;20.868;2023-02-03T11:06:15;3.80;;;1.77;;
28960;SDS011;16068;42.896;20.868;2023-02-03T11:09:01;3.65;;;1.80;;
28960;SDS011;16068;42.896;20.868;2023-02-03T11:12:11;3.17;;;2.08;;
28960;SDS011;16068;42.896;20.868;2023-02-03T11:15:04;5.03;;;1.48;;
28960;SDS011;16068;42.896;20.868;2023-02-03T11:17:50;2.70;;;1.73;;
28960;SDS011;16068;42.896;20.868;2023-02-03T11:20:36;2.92;;;1.27;;
28960;SDS011;16068;42.896;20.868;2023-02-03T11:23:22;4.43;;;1.70;;
28960;SDS011;16068;42.896;20.868;2023-02-03T11:26:10;6.55;;;1.67;;
28960;SDS011;16068;42.896;20.868;2023-02-03T11:28:59;1.95;;;0.90;;
28960;SDS011;16068;42.896;20.868;2023-02-03T11:31:58;6.55;;;1.80;;
28960;SDS011;16068;42.896;20.868;2023-02-03T11:37:43;5.10;;;2.33;;
28960;SDS011;16068;42.896;20.868;2023-02-03T11:40:30;5.82;;;2.35;;
28960;SDS011;16068;42.896;20.868;2023-02-03T11:43:23;7.60;;;1.95;;
28960;SDS011;16068;42.896;20.868;2023-02-03T11:46:09;2.00;;;1.23;;
28960;SDS011;16068;42.896;20.868;2023-02-03T11:54:45;5.80;;;1.13;;
28960;SDS011;16068;42.896;20.868;2023-02-03T11:57:43;2.40;;;1.10;;
28960;SDS011;16068;42.896;20.868;2023-02-03T12:09:59;23.52;;;2.22;;
28960;SDS011;16068;42.896;20.868;2023-02-03T12:12:55;3.17;;;1.40;;
28960;SDS011;16068;42.896;20.868;2023-02-03T12:18:55;5.22;;;1.90;;
28960;SDS011;16068;42.896;20.868;2023-02-03T12:27:45;5.72;;;1.85;;
28960;SDS011;16068;42.896;20.868;2023-02-03T12:30:40;7.82;;;1.50;;
28960;SDS011;16068;42.896;20.868;2023-02-03T12:33:34;5.07;;;2.70;;
28960;SDS011;16068;42.896;20.868;2023-02-03T12:37:09;7.68;;;2.50;;
28960;SDS011;16068;42.896;20.868;2023-02-03T12:46:13;6.90;;;2.72;;
28960;SDS011;16068;42.896;20.868;2023-02-03T12:49:04;14.70;;;3.25;;
28960;SDS011;16068;42.896;20.868;2023-02-03T13:01:37;3.33;;;1.10;;
28960;SDS011;16068;42.896;20.868;2023-02-03T13:10:24;4.00;;;1.10;;
28960;SDS011;16068;42.896;20.868;2023-02-03T13:13:13;10.40;;;1.02;;
28960;SDS011;16068;42.896;20.868;2023-02-03T13:16:04;7.25;;;3.75;;
28960;SDS011;16068;42.896;20.868;2023-02-03T13:18:52;3.33;;;1.40;;
28960;SDS011;16068;42.896;20.868;2023-02-03T13:21:43;3.83;;;1.10;;
28960;SDS011;16068;42.896;20.868;2023-02-03T13:24:30;3.67;;;1.27;;
28960;SDS011;16068;42.896;20.868;2023-02-03T13:43:00;4.05;;;1.25;;
28960;SDS011;16068;42.896;20.868;2023-02-03T13:45:50;1.98;;;1.10;;
28960;SDS011;16068;42.896;20.868;2023-02-03T13:48:37;5.47;;;3.03;;
28960;SDS011;16068;42.896;20.868;2023-02-03T13:51:24;3.33;;;1.65;;
28960;SDS011;16068;42.896;20.868;2023-02-03T13:54:27;4.93;;;1.60;;
28960;SDS011;16068;42.896;20.868;2023-02-03T14:15:02;11.57;;;5.43;;
28960;SDS011;16068;42.896;20.868;2023-02-03T14:20:48;16.67;;;3.90;;
28960;SDS011;16068;42.896;20.868;2023-02-03T14:23:44;22.30;;;4.82;;
28960;SDS011;16068;42.896;20.868;2023-02-03T14:26:33;12.75;;;3.90;;
28960;SDS011;16068;42.896;20.868;2023-02-03T14:29:24;12.20;;;3.15;;
28960;SDS011;16068;42.896;20.868;2023-02-03T14:32:12;26.45;;;4.88;;
28960;SDS011;16068;42.896;20.868;2023-02-03T14:34:58;7.88;;;3.67;;
28960;SDS011;16068;42.896;20.868;2023-02-03T14:37:54;30.83;;;4.20;;
28960;SDS011;16068;42.896;20.868;2023-02-03T14:40:58;8.60;;;3.42;;
28960;SDS011;16068;42.896;20.868;2023-02-03T14:47:09;5.85;;;3.35;;
28960;SDS011;16068;42.896;20.868;2023-02-03T14:53:29;6.10;;;3.00;;
28960;SDS011;16068;42.896;20.868;2023-02-03T14:59:56;10.27;;;3.65;;
28960;SDS011;16068;42.896;20.868;2023-02-03T15:05:57;23.33;;;6.85;;
28960;SDS011;16068;42.896;20.868;2023-02-03T15:08:47;33.05;;;7.40;;
28960;SDS011;16068;42.896;20.868;2023-02-03T15:11:44;13.20;;;5.45;;
28960;SDS011;16068;42.896;20.868;2023-02-03T15:14:30;22.83;;;11.98;;
28960;SDS011;16068;42.896;20.868;2023-02-03T15:17:22;12.05;;;4.82;;
28960;SDS011;16068;42.896;20.868;2023-02-03T15:23:35;14.35;;;4.43;;
28960;SDS011;16068;42.896;20.868;2023-02-03T15:26:24;31.05;;;7.93;;
28960;SDS011;16068;42.896;20.868;2023-02-03T15:29:17;24.95;;;9.20;;
28960;SDS011;16068;42.896;20.868;2023-02-03T15:34:52;29.60;;;13.13;;
28960;SDS011;16068;42.896;20.868;2023-02-03T15:40:35;33.53;;;11.10;;
28960;SDS011;16068;42.896;20.868;2023-02-03T15:43:44;19.92;;;7.68;;
28960;SDS011;16068;42.896;20.868;2023-02-03T15:49:40;45.60;;;10.02;;
28960;SDS011;16068;42.896;20.868;2023-02-03T15:52:26;52.63;;;11.30;;
28960;SDS011;16068;42.896;20.868;2023-02-03T15:55:19;39.08;;;9.13;;
28960;SDS011;16068;42.896;20.868;2023-02-03T15:58:27;17.73;;;5.78;;
28960;SDS011;16068;42.896;20.868;2023-02-03T16:01:14;53.80;;;9.93;;
28960;SDS011;16068;42.896;20.868;2023-02-03T16:04:04;44.15;;;6.93;;
28960;SDS011;16068;42.896;20.868;2023-02-03T16:06:54;34.38;;;5.60;;
28960;SDS011;16068;42.896;20.868;2023-02-03T16:09:40;18.63;;;4.10;;
28960;SDS011;16068;42.896;20.868;2023-02-03T16:12:32;28.17;;;5.97;;
28960;SDS011;16068;42.896;20.868;2023-02-03T16:15:22;11.82;;;4.10;;
28960;SDS011;16068;42.896;20.868;2023-02-03T16:18:15;24.58;;;4.60;;
28960;SDS011;16068;42.896;20.868;2023-02-03T16:21:05;7.95;;;3.33;;
28960;SDS011;16068;42.896;20.868;2023-02-03T16:23:52;21.45;;;4.95;;
28960;SDS011;16068;42.896;20.868;2023-02-03T16:26:39;20.70;;;4.55;;
28960;SDS011;16068;42.896;20.868;2023-02-03T16:29:28;13.68;;;4.55;;
28960;SDS011;16068;42.896;20.868;2023-02-03T16:32:33;10.07;;;3.78;;
28960;SDS011;16068;42.896;20.868;2023-02-03T16:35:39;13.45;;;5.20;;
28960;SDS011;16068;42.896;20.868;2023-02-03T16:38:45;26.80;;;8.43;;
28960;SDS011;16068;42.896;20.868;2023-02-03T16:41:50;19.13;;;8.82;;
28960;SDS011;16068;42.896;20.868;2023-02-03T16:44:55;34.83;;;10.30;;
28960;SDS011;16068;42.896;20.868;2023-02-03T16:48:02;36.55;;;10.10;;
28960;SDS011;16068;42.896;20.868;2023-02-03T16:51:14;19.77;;;6.53;;
28960;SDS011;16068;42.896;20.868;2023-02-03T16:54:01;20.90;;;5.53;;
28960;SDS011;16068;42.896;20.868;2023-02-03T16:56:47;20.92;;;6.53;;
28960;SDS011;16068;42.896;20.868;2023-02-03T16:59:34;24.90;;;7.07;;
28960;SDS011;16068;42.896;20.868;2023-02-03T17:02:20;15.20;;;5.70;;
28960;SDS011;16068;42.896;20.868;2023-02-03T17:05:06;18.67;;;6.28;;
28960;SDS011;16068;42.896;20.868;2023-02-03T17:07:51;15.82;;;6.15;;
28960;SDS011;16068;42.896;20.868;2023-02-03T17:10:39;17.65;;;7.03;;
28960;SDS011;16068;42.896;20.868;2023-02-03T17:13:25;9.32;;;5.20;;
28960;SDS011;16068;42.896;20.868;2023-02-03T17:19:01;8.82;;;4.03;;
28960;SDS011;16068;42.896;20.868;2023-02-03T17:21:47;21.15;;;8.63;;
28960;SDS011;16068;42.896;20.868;2023-02-03T17:24:34;37.10;;;12.68;;
28960;SDS011;16068;42.896;20.868;2023-02-03T17:27:20;44.65;;;15.30;;
28960;SDS011;16068;42.896;20.868;2023-02-03T17:30:06;35.55;;;16.65;;
28960;SDS011;16068;42.896;20.868;2023-02-03T17:32:52;55.63;;;21.55;;
28960;SDS011;16068;42.896;20.868;2023-02-03T17:35:39;63.55;;;24.77;;
28960;SDS011;16068;42.896;20.868;2023-02-03T17:38:29;55.08;;;24.02;;
28960;SDS011;16068;42.896;20.868;2023-02-03T17:41:17;74.13;;;33.25;;
28960;SDS011;16068;42.896;20.868;2023-02-03T17:44:22;57.58;;;28.13;;
28960;SDS011;16068;42.896;20.868;2023-02-03T17:47:25;74.07;;;27.38;;
28960;SDS011;16068;42.896;20.868;2023-02-03T17:50:30;80.72;;;29.55;;
28960;SDS011;16068;42.896;20.868;2023-02-03T17:53:33;70.00;;;27.43;;
28960;SDS011;16068;42.896;20.868;2023-02-03T17:56:22;60.67;;;25.40;;
28960;SDS011;16068;42.896;20.868;2023-02-03T17:59:09;56.53;;;25.50;;
28960;SDS011;16068;42.896;20.868;2023-02-03T18:01:56;55.28;;;25.92;;
28960;SDS011;16068;42.896;20.868;2023-02-03T18:04:41;60.22;;;26.08;;
28960;SDS011;16068;42.896;20.868;2023-02-03T18:07:29;58.78;;;23.65;;
28960;SDS011;16068;42.896;20.868;2023-02-03T18:10:15;35.67;;;16.00;;
28960;SDS011;16068;42.896;20.868;2023-02-03T18:13:02;36.42;;;16.88;;
28960;SDS011;16068;42.896;20.868;2023-02-03T18:15:49;53.90;;;18.55;;
28960;SDS011;16068;42.896;20.868;2023-02-03T18:18:35;52.40;;;19.20;;
28960;SDS011;16068;42.896;20.868;2023-02-03T18:21:24;55.60;;;18.60;;
28960;SDS011;16068;42.896;20.868;2023-02-03T18:24:11;28.75;;;14.77;;
28960;SDS011;16068;42.896;20.868;2023-02-03T18:26:58;43.25;;;16.15;;
28960;SDS011;16068;42.896;20.868;2023-02-03T18:29:45;37.20;;;16.60;;
28960;SDS011;16068;42.896;20.868;2023-02-03T18:32:33;49.45;;;18.05;;
28960;SDS011;16068;42.896;20.868;2023-02-03T18:35:19;52.22;;;20.50;;
28960;SDS011;16068;42.896;20.868;2023-02-03T18:38:05;46.67;;;22.02;;
28960;SDS011;16068;42.896;20.868;2023-02-03T18:40:52;55.22;;;27.35;;
28960;SDS011;16068;42.896;20.868;2023-02-03T18:43:40;65.47;;;24.30;;
28960;SDS011;16068;42.896;20.868;2023-02-03T18:46:27;57.58;;;26.25;;
28960;SDS011;16068;42.896;20.868;2023-02-03T18:49:15;62.03;;;26.10;;
28960;SDS011;16068;42.896;20.868;2023-02-03T18:52:02;80.55;;;29.77;;
28960;SDS011;16068;42.896;20.868;2023-02-03T18:54:48;74.20;;;27.17;;
28960;SDS011;16068;42.896;20.868;2023-02-03T18:57:36;59.00;;;24.00;;
28960;SDS011;16068;42.896;20.868;2023-02-03T19:00:35;80.30;;;34.00;;
28960;SDS011;16068;42.896;20.868;2023-02-03T19:03:21;87.38;;;38.33;;
28960;SDS011;16068;42.896;20.868;2023-02-03T19:06:11;65.95;;;31.65;;
28960;SDS011;16068;42.896;20.868;2023-02-03T19:09:02;49.67;;;23.60;;
28960;SDS011;16068;42.896;20.868;2023-02-03T19:11:49;23.58;;;10.38;;
28960;SDS011;16068;42.896;20.868;2023-02-03T19:14:36;29.23;;;11.32;;
28960;SDS011;16068;42.896;20.868;2023-02-03T19:22:00;32.88;;;13.02;;